createdAt,value
2018-02-13T00:04:15.963Z,98.40
2018-02-13T00:08:59.318Z,98.30
2018-02-13T00:13:42.669Z,98.20
2018-02-13T00:18:26.802Z,98.40
2018-02-13T00:23:10.182Z,98.40
2018-02-13T00:27:54.273Z,98.50
2018-02-13T00:32:37.590Z,98.50
2018-02-13T00:37:20.923Z,98.70
2018-02-13T00:42:04.234Z,98.80
2018-02-13T00:46:47.618Z,99.00
2018-02-13T00:51:30.961Z,98.90
2018-02-13T00:56:14.313Z,98.60
2018-02-13T01:00:57.608Z,98.80
2018-02-13T01:05:41.732Z,98.30
2018-02-13T01:10:25.088Z,98.30
2018-02-13T01:15:08.485Z,98.20
2018-02-13T01:19:51.818Z,98.20
2018-02-13T01:24:35.191Z,98.20
2018-02-13T01:29:18.519Z,98.30
2018-02-13T01:34:01.846Z,98.10
2018-02-13T01:38:45.225Z,98.10
2018-02-13T01:43:28.570Z,98.30
2018-02-13T01:48:11.919Z,98.10
2018-02-13T01:52:55.222Z,98.10
2018-02-13T01:57:38.541Z,97.90
2018-02-13T02:02:21.875Z,97.60
2018-02-13T02:07:05.257Z,97.20
2018-02-13T02:11:48.595Z,97.40
2018-02-13T02:16:31.969Z,97.50
2018-02-13T02:21:15.334Z,97.60
2018-02-13T02:25:58.610Z,97.90
2018-02-13T02:30:41.984Z,97.80
2018-02-13T02:35:26.093Z,97.70
2018-02-13T02:40:09.439Z,97.70
2018-02-13T02:44:52.840Z,97.90
2018-02-13T02:49:36.955Z,97.90
2018-02-13T02:54:20.294Z,97.90
2018-02-13T02:59:03.616Z,98.10
2018-02-13T03:03:46.949Z,98.20
2018-02-13T03:08:30.281Z,98.20
2018-02-13T03:13:13.616Z,97.90
2018-02-13T03:17:56.905Z,97.70
2018-02-13T03:22:40.363Z,97.80
2018-02-13T03:27:23.751Z,97.60
2018-02-13T03:32:07.176Z,97.30
2018-02-13T03:36:50.571Z,97.10
2018-02-13T03:41:33.923Z,97.30
2018-02-13T03:46:17.310Z,97.30
2018-02-13T03:51:00.644Z,97.50
2018-02-13T03:55:44.013Z,97.70
2018-02-13T04:00:27.487Z,97.90
2018-02-13T04:05:10.843Z,97.90
2018-02-13T04:09:54.946Z,98.20
2018-02-13T04:14:38.313Z,98.20
2018-02-13T04:19:21.666Z,98.40
2018-02-13T04:24:05.019Z,98.60
2018-02-13T04:28:48.366Z,98.80
2018-02-13T04:33:31.735Z,99.00
2018-02-13T04:38:15.046Z,99.00
2018-02-13T04:42:59.162Z,99.20
2018-02-13T04:47:42.502Z,99.20
2018-02-13T04:52:25.841Z,99.40
2018-02-13T04:57:09.178Z,99.40
2018-02-13T05:01:52.838Z,99.70
2018-02-13T05:06:36.265Z,99.90
2018-02-13T05:11:19.630Z,99.90
2018-02-13T05:16:02.938Z,99.90
2018-02-13T05:20:46.276Z,99.90
2018-02-13T05:25:29.633Z,99.90
2018-02-13T05:30:12.962Z,99.90
2018-02-13T05:34:56.359Z,99.90
2018-02-13T05:39:40.443Z,99.90
2018-02-13T05:44:23.841Z,99.90
2018-02-13T05:49:07.302Z,99.90
2018-02-13T05:53:51.417Z,99.90
2018-02-13T05:58:34.764Z,99.90
2018-02-13T06:03:18.126Z,99.90
2018-02-13T06:08:01.462Z,99.90
2018-02-13T06:12:44.823Z,99.90
2018-02-13T06:17:28.982Z,99.90
2018-02-13T06:22:13.086Z,99.90
2018-02-13T06:26:56.449Z,99.90
2018-02-13T06:31:39.877Z,99.90
2018-02-13T06:36:23.170Z,99.90
2018-02-13T06:41:06.563Z,99.90
2018-02-13T06:45:49.878Z,99.90
2018-02-13T06:50:33.268Z,99.90
2018-02-13T06:55:16.631Z,99.90
2018-02-13T07:00:00.808Z,99.90
2018-02-13T07:04:44.188Z,99.90
2018-02-13T07:09:27.530Z,99.90
2018-02-13T07:14:11.942Z,99.90
2018-02-13T07:18:56.054Z,99.80
2018-02-13T07:23:39.518Z,99.90
2018-02-13T07:28:22.861Z,99.90
2018-02-13T07:33:06.525Z,99.90
2018-02-13T07:37:50.694Z,99.60
2018-02-13T07:42:34.073Z,99.60
2018-02-13T07:47:17.451Z,99.40
2018-02-13T07:52:01.066Z,99.30
2018-02-13T07:56:44.457Z,99.30
2018-02-13T08:01:27.805Z,98.90
2018-02-13T08:06:11.213Z,98.30
2018-02-13T08:10:54.611Z,98.00
2018-02-13T08:15:38.109Z,97.30
2018-02-13T08:20:21.514Z,97.00
2018-02-13T08:25:04.841Z,96.30
2018-02-13T08:29:48.906Z,96.10
2018-02-13T08:34:32.224Z,95.80
2018-02-13T08:39:15.859Z,95.20
2018-02-13T08:43:59.627Z,94.70
2018-02-13T08:48:42.962Z,93.80
2018-02-13T08:53:26.332Z,93.20
2018-02-13T08:58:09.714Z,93.30
2018-02-13T09:02:53.882Z,91.90
2018-02-13T09:07:38.048Z,91.30
2018-02-13T09:12:21.371Z,91.30
2018-02-13T09:17:05.665Z,90.70
2018-02-13T09:21:49.022Z,90.70
2018-02-13T09:26:32.383Z,90.20
2018-02-13T09:31:15.743Z,89.70
2018-02-13T09:35:59.227Z,88.00
2018-02-13T09:40:42.712Z,85.80
2018-02-13T09:45:26.084Z,84.30
2018-02-13T09:50:09.464Z,85.00
2018-02-13T09:54:52.837Z,83.40
2018-02-13T09:59:36.199Z,82.80
2018-02-13T10:04:19.579Z,81.40
2018-02-13T10:09:02.974Z,79.30
2018-02-13T10:13:46.354Z,79.00
2018-02-13T10:18:29.734Z,80.00
2018-02-13T10:23:13.062Z,80.90
2018-02-13T10:27:56.409Z,79.90
2018-02-13T10:32:39.821Z,80.20
2018-02-13T10:37:23.210Z,81.80
2018-02-13T10:42:06.546Z,81.10
2018-02-13T10:46:49.908Z,81.70
2018-02-13T10:51:33.275Z,82.20
2018-02-13T10:56:16.649Z,81.10
2018-02-13T11:01:05.675Z,80.20
2018-02-13T11:05:49.147Z,78.40
2018-02-13T11:10:32.547Z,78.90
2018-02-13T11:15:16.563Z,78.90
2018-02-13T11:19:59.922Z,78.70
2018-02-13T11:24:43.299Z,78.00
2018-02-13T11:29:26.651Z,79.50
2018-02-13T11:34:10.719Z,78.10
2018-02-13T11:38:54.118Z,78.10
2018-02-13T11:43:37.514Z,80.00
2018-02-13T11:48:20.870Z,78.70
2018-02-13T11:53:04.209Z,79.40
2018-02-13T11:57:47.576Z,80.20
2018-02-13T12:02:31.303Z,80.30
2018-02-13T12:07:14.623Z,78.70
2018-02-13T12:11:57.953Z,76.30
2018-02-13T12:16:41.344Z,75.70
2018-02-13T12:21:24.686Z,76.30
2018-02-13T12:26:08.027Z,74.00
2018-02-13T12:30:51.351Z,73.50
2018-02-13T12:35:35.165Z,68.40
2018-02-13T12:40:18.572Z,69.10
2018-02-13T12:45:01.875Z,68.20
2018-02-13T12:49:45.634Z,66.20
2018-02-13T12:54:29.051Z,61.50
2018-02-13T12:59:12.422Z,62.00
2018-02-13T13:04:07.451Z,59.90
2018-02-13T13:08:50.842Z,56.50
2018-02-13T13:13:34.380Z,53.60
2018-02-13T13:18:18.119Z,54.10
2018-02-13T13:23:02.252Z,58.20
2018-02-13T13:27:45.597Z,58.20
2018-02-13T13:32:28.986Z,59.70
2018-02-13T13:37:12.340Z,60.00
2018-02-13T13:41:55.911Z,60.90
2018-02-13T13:46:39.245Z,59.60
2018-02-13T13:51:22.570Z,57.70
2018-02-13T13:56:05.877Z,59.70
2018-02-13T14:00:49.246Z,61.50
2018-02-13T14:05:32.574Z,62.00
2018-02-13T14:10:16.119Z,64.80
2018-02-13T14:15:00.541Z,64.70
2018-02-13T14:19:44.726Z,65.00
2018-02-13T14:24:28.116Z,65.00
2018-02-13T14:29:11.458Z,65.70
2018-02-13T14:33:54.808Z,67.00
2018-02-13T14:38:38.145Z,66.90
2018-02-13T14:43:22.380Z,68.80
2018-02-13T14:48:06.232Z,68.70
2018-02-13T14:52:49.614Z,69.00
2018-02-13T14:57:33.063Z,70.10
2018-02-13T15:02:16.442Z,69.10
2018-02-13T15:06:59.816Z,71.70
2018-02-13T15:11:43.167Z,71.80
2018-02-13T15:16:26.499Z,73.80
2018-02-13T15:21:09.854Z,76.90
2018-02-13T15:25:53.247Z,78.80
2018-02-13T15:30:36.645Z,81.00
2018-02-13T15:35:20.770Z,82.00
2018-02-13T15:40:04.042Z,82.00
2018-02-13T15:44:47.436Z,81.50
2018-02-13T15:49:30.790Z,83.20
2018-02-13T15:54:14.115Z,84.50
2018-02-13T15:58:57.461Z,83.70
2018-02-13T16:03:40.807Z,82.40
2018-02-13T16:08:24.108Z,82.30
2018-02-13T16:13:08.174Z,79.90
2018-02-13T16:17:51.493Z,79.90
2018-02-13T16:22:35.606Z,79.80
2018-02-13T16:27:18.915Z,79.80
2018-02-13T16:32:02.218Z,80.90
2018-02-13T16:36:45.556Z,84.80
2018-02-13T16:41:28.946Z,88.80
2018-02-13T16:46:12.290Z,90.00
2018-02-13T16:50:55.682Z,87.10
2018-02-13T16:55:39.025Z,90.40
2018-02-13T17:00:23.117Z,93.00
2018-02-13T17:05:06.443Z,93.00
2018-02-13T17:09:49.779Z,94.40
2018-02-13T17:14:33.166Z,95.60
2018-02-13T17:19:16.523Z,96.50
2018-02-13T17:23:59.905Z,97.30
2018-02-13T17:28:44.032Z,96.60
2018-02-13T17:33:27.479Z,96.60
2018-02-13T17:38:10.889Z,96.00
2018-02-13T17:42:54.250Z,95.40
2018-02-13T17:47:37.757Z,95.00
2018-02-13T17:52:21.135Z,95.10
2018-02-13T17:57:11.848Z,94.60
2018-02-13T18:01:55.885Z,94.10
2018-02-13T18:06:40.891Z,93.10
2018-02-13T18:11:27.442Z,93.30
2018-02-13T18:16:12.016Z,93.30
2018-02-13T18:20:56.619Z,93.10
2018-02-13T18:25:42.781Z,93.30
2018-02-13T18:30:26.509Z,93.40
2018-02-13T18:35:11.038Z,93.70
2018-02-13T18:39:55.845Z,94.00
2018-02-13T18:44:42.752Z,94.50
2018-02-13T18:49:27.112Z,94.30
2018-02-13T18:54:10.661Z,94.30
2018-02-13T18:58:55.009Z,95.30
2018-02-13T19:03:39.416Z,95.80
2018-02-13T19:08:23.746Z,96.90
2018-02-13T19:13:08.476Z,96.90
2018-02-13T19:17:51.949Z,97.10
2018-02-13T19:22:35.298Z,97.50
2018-02-13T19:27:18.683Z,98.00
2018-02-13T19:32:02.091Z,98.20
2018-02-13T19:42:06.744Z,97.60
2018-02-13T19:46:50.536Z,97.50
2018-02-13T19:51:40.036Z,96.50
2018-02-13T19:56:28.589Z,96.50
2018-02-13T20:01:12.190Z,95.90
2018-02-13T20:05:55.613Z,95.80
2018-02-13T20:10:40.214Z,95.40
2018-02-13T20:15:24.453Z,94.90
2018-02-13T20:20:07.899Z,94.80
2018-02-13T20:24:51.321Z,94.80
2018-02-13T20:29:35.732Z,95.00
2018-02-13T20:34:19.228Z,95.30
2018-02-13T20:39:02.599Z,95.80
2018-02-13T20:43:46.027Z,95.70
2018-02-13T20:48:29.508Z,96.10
2018-02-13T20:53:12.902Z,96.20
2018-02-13T20:57:57.171Z,96.90
2018-02-13T21:02:40.589Z,96.40
2018-02-13T21:07:24.712Z,96.20
2018-02-13T21:12:08.217Z,96.20
2018-02-13T21:16:51.588Z,96.10
2018-02-13T21:21:34.956Z,96.10
2018-02-13T21:26:18.372Z,96.80
2018-02-13T21:31:02.610Z,97.20
2018-02-13T21:35:46.667Z,97.20
2018-02-13T21:40:30.006Z,97.40
2018-02-13T21:45:13.505Z,97.80
2018-02-13T21:49:56.945Z,97.90
2018-02-13T21:54:40.616Z,98.50
2018-02-13T21:59:24.099Z,98.90
2018-02-13T22:04:07.400Z,98.90
2018-02-13T22:08:50.735Z,98.60
2018-02-13T22:13:34.863Z,99.00
2018-02-13T22:18:18.908Z,98.90
2018-02-13T22:23:02.237Z,99.30
2018-02-13T22:27:45.578Z,99.20
2018-02-13T22:32:28.940Z,99.10
2018-02-13T22:37:12.355Z,99.10
2018-02-13T22:41:55.764Z,98.90
2018-02-13T22:46:39.871Z,98.50
2018-02-13T22:51:23.231Z,98.60
2018-02-13T22:56:06.787Z,98.30
2018-02-13T23:00:50.214Z,98.00
2018-02-13T23:05:33.562Z,97.70
2018-02-13T23:10:16.925Z,97.70
2018-02-13T23:15:00.366Z,97.50
2018-02-13T23:19:43.712Z,97.40
2018-02-13T23:24:27.821Z,96.90
2018-02-13T23:29:11.167Z,96.90
2018-02-13T23:33:54.507Z,96.60
2018-02-13T23:38:37.863Z,96.60
2018-02-13T23:43:21.247Z,96.10
2018-02-13T23:48:04.615Z,95.90
2018-02-13T23:52:47.949Z,96.10
2018-02-13T23:57:31.307Z,96.00
